createdAt,value
2019-04-16T00:00:47.479Z,98959.19
2019-04-16T00:03:17.082Z,98961.67
2019-04-16T00:05:48.240Z,98960.58
2019-04-16T00:08:27.924Z,98945.05
2019-04-16T00:11:01.215Z,98949.42
2019-04-16T00:13:35.223Z,98941.70
2019-04-16T00:16:05.041Z,98938.16
2019-04-16T00:18:34.554Z,98942.78
2019-04-16T00:21:14.611Z,98933.00
2019-04-16T00:24:01.658Z,98935.34
2019-04-16T00:26:31.339Z,98939.37
2019-04-16T00:29:02.074Z,98928.70
2019-04-16T00:31:34.273Z,98930.00
2019-04-16T00:34:04.508Z,98927.53
2019-04-16T00:36:34.004Z,98928.14
2019-04-16T00:39:05.017Z,98922.84
2019-04-16T00:41:34.596Z,98923.33
2019-04-16T00:44:04.441Z,98917.30
2019-04-16T00:46:34.007Z,98917.16
2019-04-16T00:49:03.871Z,98923.53
2019-04-16T00:51:33.455Z,98925.25
2019-04-16T00:54:03.111Z,98923.80
2019-04-16T00:56:32.739Z,98919.25
2019-04-16T00:59:02.246Z,98922.76
2019-04-16T01:01:31.856Z,98929.09
2019-04-16T01:04:01.508Z,98930.09
2019-04-16T01:06:31.047Z,98924.14
2019-04-16T01:09:00.928Z,98923.53
2019-04-16T01:11:30.508Z,98919.94
2019-04-16T01:14:00.058Z,98905.34
2019-04-16T01:16:30.348Z,98909.20
2019-04-16T01:19:00.802Z,98908.05
2019-04-16T01:21:30.521Z,98906.88
2019-04-16T01:24:00.156Z,98902.47
2019-04-16T01:26:29.661Z,98900.16
2019-04-16T01:29:06.871Z,98903.70
2019-04-16T01:31:54.108Z,98900.20
2019-04-16T01:34:25.427Z,98898.08
2019-04-16T01:36:55.003Z,98900.82
2019-04-16T01:39:31.809Z,98900.92
2019-04-16T01:42:01.318Z,98901.78
2019-04-16T01:44:31.395Z,98903.75
2019-04-16T01:47:04.317Z,98903.20
2019-04-16T01:49:32.902Z,98902.14
2019-04-16T01:52:02.507Z,98902.14
2019-04-16T01:54:32.101Z,98893.19
2019-04-16T01:57:01.789Z,98897.36
2019-04-16T01:59:35.585Z,98898.59
2019-04-16T02:02:02.837Z,98900.66
2019-04-16T02:04:32.433Z,98895.39
2019-04-16T02:07:02.014Z,98903.17
2019-04-16T02:09:34.700Z,98900.86
2019-04-16T02:12:03.071Z,98899.42
2019-04-16T02:14:32.610Z,98895.59
2019-04-16T02:17:02.292Z,98894.21
2019-04-16T02:19:32.830Z,98893.45
2019-04-16T02:22:03.153Z,98899.58
2019-04-16T02:24:32.800Z,98895.19
2019-04-16T02:27:02.328Z,98898.53
2019-04-16T02:29:33.551Z,98895.13
2019-04-16T02:32:03.648Z,98901.84
2019-04-16T02:34:33.224Z,98898.30
2019-04-16T02:37:03.551Z,98900.02
2019-04-16T02:39:47.735Z,98897.05
2019-04-16T02:42:04.802Z,98899.39
2019-04-16T02:44:34.681Z,98893.98
2019-04-16T02:47:06.604Z,98895.91
2019-04-16T02:49:35.565Z,98903.81
2019-04-16T02:52:14.767Z,98899.78
2019-04-16T02:54:42.668Z,98898.80
2019-04-16T02:57:27.967Z,98896.63
2019-04-16T02:59:59.412Z,98900.08
2019-04-16T03:02:30.653Z,98904.05
2019-04-16T03:05:07.990Z,98902.13
2019-04-16T03:07:37.646Z,98898.59
2019-04-16T03:10:12.012Z,98900.84
2019-04-16T03:12:38.814Z,98899.88
2019-04-16T03:15:09.074Z,98898.83
2019-04-16T03:17:42.723Z,98891.89
2019-04-16T03:20:13.735Z,98886.52
2019-04-16T03:22:43.510Z,98885.08
2019-04-16T03:25:14.657Z,98899.45
2019-04-16T03:27:44.336Z,98895.43
2019-04-16T03:30:13.988Z,98891.98
2019-04-16T03:32:50.726Z,98888.25
2019-04-16T03:35:25.529Z,98893.52
2019-04-16T03:37:51.793Z,98890.06
2019-04-16T03:40:24.894Z,98887.38
2019-04-16T03:42:52.781Z,98892.84
2019-04-16T03:45:22.314Z,98882.07
2019-04-16T03:47:52.343Z,98884.65
2019-04-16T03:50:22.187Z,98890.82
2019-04-16T03:52:51.780Z,98883.26
2019-04-16T03:55:25.254Z,98883.94
2019-04-16T03:57:52.625Z,98878.32
2019-04-16T04:00:22.788Z,98879.19
2019-04-16T04:02:55.070Z,98881.17
2019-04-16T04:05:25.191Z,98881.68
2019-04-16T04:07:55.477Z,98882.36
2019-04-16T04:10:30.979Z,98879.30
2019-04-16T04:12:56.436Z,98874.79
2019-04-16T04:15:27.106Z,98878.56
2019-04-16T04:17:57.000Z,98883.55
2019-04-16T04:20:26.554Z,98891.20
2019-04-16T04:22:57.100Z,98887.19
2019-04-16T04:25:27.501Z,98891.97
2019-04-16T04:27:57.179Z,98885.46
2019-04-16T04:30:28.936Z,98881.44
2019-04-16T04:32:57.928Z,98886.80
2019-04-16T04:35:27.454Z,98882.53
2019-04-16T04:37:57.062Z,98884.55
2019-04-16T04:40:26.713Z,98877.94
2019-04-16T04:42:57.669Z,98885.83
2019-04-16T04:45:27.606Z,98889.46
2019-04-16T04:47:57.120Z,98889.02
2019-04-16T04:50:26.667Z,98887.33
2019-04-16T04:52:56.262Z,98886.47
2019-04-16T04:55:26.863Z,98882.55
2019-04-16T04:57:56.754Z,98881.30
2019-04-16T05:00:26.375Z,98887.45
2019-04-16T05:02:55.879Z,98884.55
2019-04-16T05:05:39.144Z,98897.66
2019-04-16T05:08:08.722Z,98890.20
2019-04-16T05:10:42.666Z,98894.03
2019-04-16T05:13:10.023Z,98893.80
2019-04-16T05:15:39.619Z,98897.88
2019-04-16T05:18:10.819Z,98899.38
2019-04-16T05:20:40.610Z,98898.52
2019-04-16T05:23:10.218Z,98898.52
2019-04-16T05:25:39.803Z,98899.44
2019-04-16T05:28:12.183Z,98900.20
2019-04-16T05:30:40.635Z,98899.69
2019-04-16T05:33:10.210Z,98900.06
2019-04-16T05:35:41.345Z,98901.28
2019-04-16T05:38:11.137Z,98899.20
2019-04-16T05:40:40.692Z,98902.95
2019-04-16T05:43:10.217Z,98908.74
2019-04-16T05:45:39.868Z,98912.81
2019-04-16T05:48:09.480Z,98908.47
2019-04-16T05:50:39.098Z,98912.28
2019-04-16T05:53:09.330Z,98914.78
2019-04-16T05:55:43.312Z,98920.34
2019-04-16T05:58:13.053Z,98908.22
2019-04-16T06:00:49.945Z,98907.77
2019-04-16T06:03:21.837Z,98911.27
2019-04-16T06:05:50.783Z,98905.07
2019-04-16T06:08:20.298Z,98909.08
2019-04-16T06:10:51.155Z,98915.65
2019-04-16T06:13:22.493Z,98917.27
2019-04-16T06:15:56.789Z,98918.19
2019-04-16T06:18:37.929Z,98916.91
2019-04-16T06:21:05.946Z,98925.39
2019-04-16T06:23:35.379Z,98926.80
2019-04-16T06:26:24.713Z,98919.74
2019-04-16T06:29:01.574Z,98923.30
2019-04-16T06:31:36.243Z,98923.57
2019-04-16T06:34:12.646Z,98928.91
2019-04-16T06:36:43.820Z,98923.20
2019-04-16T06:39:15.058Z,98929.20
2019-04-16T06:41:47.820Z,98928.13
2019-04-16T06:44:19.982Z,98931.21
2019-04-16T06:46:51.161Z,98934.02
2019-04-16T06:49:27.998Z,98928.66
2019-04-16T06:52:00.241Z,98925.11
2019-04-16T06:54:40.399Z,98926.95
2019-04-16T06:57:17.657Z,98927.70
2019-04-16T06:59:59.592Z,98925.86
2019-04-16T07:03:01.741Z,98922.45
2019-04-16T07:05:18.043Z,98923.91
2019-04-16T07:08:02.080Z,98923.52
2019-04-16T07:10:43.972Z,98925.59
2019-04-16T07:13:09.949Z,98924.86
2019-04-16T07:15:35.992Z,98925.06
2019-04-16T07:18:06.293Z,98919.81
2019-04-16T07:20:36.074Z,98925.41
2019-04-16T07:23:05.658Z,98926.14
2019-04-16T07:25:40.358Z,98938.33
2019-04-16T07:28:14.099Z,98933.43
2019-04-16T07:31:01.710Z,98931.55
2019-04-16T07:33:35.809Z,98932.09
2019-04-16T07:36:19.495Z,98933.42
2019-04-16T07:38:50.655Z,98941.33
2019-04-16T07:41:21.917Z,98937.00
2019-04-16T07:44:10.230Z,98937.91
2019-04-16T07:46:38.777Z,98943.60
2019-04-16T07:49:14.704Z,98939.55
2019-04-16T07:52:06.998Z,98934.35
2019-04-16T07:54:37.584Z,98935.84
2019-04-16T07:57:07.187Z,98937.31
2019-04-16T07:59:36.701Z,98944.95
2019-04-16T08:02:06.342Z,98932.13
2019-04-16T08:04:36.475Z,98936.20
2019-04-16T08:07:06.315Z,98934.36
2019-04-16T08:09:35.862Z,98944.22
2019-04-16T08:12:10.848Z,98944.95
2019-04-16T08:14:36.798Z,98940.55
2019-04-16T08:17:06.329Z,98942.05
2019-04-16T08:19:37.430Z,98939.34
2019-04-16T08:22:07.150Z,98946.77
2019-04-16T08:24:38.293Z,98956.83
2019-04-16T08:27:09.880Z,98962.08
2019-04-16T08:29:39.149Z,98960.50
2019-04-16T08:32:08.839Z,98958.33
2019-04-16T08:34:38.419Z,98956.98
2019-04-16T08:37:08.742Z,98959.47
2019-04-16T08:39:39.805Z,98952.55
2019-04-16T08:42:09.758Z,98945.73
2019-04-16T08:44:39.363Z,98948.56
2019-04-16T08:47:12.096Z,98954.89
2019-04-16T08:49:40.345Z,98952.45
2019-04-16T08:52:10.972Z,98958.67
2019-04-16T08:54:40.723Z,98945.22
2019-04-16T08:57:10.489Z,98951.58
2019-04-16T08:59:42.680Z,98940.30
2019-04-16T09:02:11.438Z,98947.67
2019-04-16T09:04:41.034Z,98955.89
2019-04-16T09:07:13.413Z,98957.92
2019-04-16T09:09:48.286Z,98958.61
2019-04-16T09:12:17.955Z,98958.60
2019-04-16T09:14:51.579Z,98948.61
2019-04-16T09:17:24.539Z,98956.25
2019-04-16T09:20:01.787Z,98964.80
2019-04-16T09:22:30.109Z,98963.05
2019-04-16T09:25:01.274Z,98958.94
2019-04-16T09:27:35.264Z,98965.28
2019-04-16T09:30:20.250Z,98970.34
2019-04-16T09:32:52.353Z,98970.75
2019-04-16T09:35:28.569Z,98976.69
2019-04-16T09:38:00.930Z,98969.59
2019-04-16T09:40:32.162Z,98979.31
2019-04-16T09:43:16.009Z,98975.17
2019-04-16T09:45:37.299Z,98982.30
2019-04-16T09:48:06.784Z,98980.12
2019-04-16T09:50:36.397Z,98983.28
2019-04-16T09:53:05.991Z,98984.78
2019-04-16T09:55:35.619Z,98997.16
2019-04-16T09:58:22.700Z,98992.03
2019-04-16T10:01:05.916Z,98994.91
2019-04-16T10:03:39.671Z,98993.78
2019-04-16T10:06:09.260Z,99006.67
2019-04-16T10:08:41.794Z,99008.75
2019-04-16T10:11:10.179Z,99009.64
2019-04-16T10:13:39.775Z,99009.00
2019-04-16T10:16:09.504Z,99011.88
2019-04-16T10:18:39.107Z,99012.98
2019-04-16T10:21:08.707Z,99014.14
2019-04-16T10:23:56.223Z,99018.23
2019-04-16T10:26:25.818Z,99018.25
2019-04-16T10:28:56.958Z,99010.25
2019-04-16T10:31:27.632Z,99007.16
2019-04-16T10:33:57.227Z,99020.22
2019-04-16T10:36:26.777Z,99021.05
2019-04-16T10:38:58.986Z,99012.56
2019-04-16T10:41:32.998Z,99030.06
2019-04-16T10:44:04.258Z,99027.09
2019-04-16T10:46:48.765Z,99026.30
2019-04-16T10:49:34.963Z,99025.56
2019-04-16T10:52:06.857Z,99030.49
2019-04-16T10:54:38.342Z,99029.44
2019-04-16T10:57:10.650Z,99035.69
2019-04-16T10:59:50.707Z,99037.97
2019-04-16T11:02:28.851Z,99032.20
2019-04-16T11:05:05.667Z,99043.09
2019-04-16T11:07:36.253Z,99037.69
2019-04-16T11:10:11.785Z,99048.22
2019-04-16T11:12:41.039Z,99052.78
2019-04-16T11:15:12.094Z,99042.54
2019-04-16T11:17:41.775Z,99043.47
2019-04-16T11:20:11.820Z,99049.11
2019-04-16T11:22:41.388Z,99053.17
2019-04-16T11:25:11.158Z,99051.42
2019-04-16T11:27:41.182Z,99054.23
2019-04-16T11:30:14.632Z,99057.17
2019-04-16T11:32:44.155Z,99054.42
2019-04-16T11:35:17.628Z,99055.09
2019-04-16T11:37:45.057Z,99059.10
2019-04-16T11:40:14.947Z,99057.14
2019-04-16T11:42:44.569Z,99059.77
2019-04-16T11:45:15.209Z,99064.73
2019-04-16T11:47:48.023Z,99064.45
2019-04-16T11:50:16.204Z,99054.53
2019-04-16T11:52:45.751Z,99063.44
2019-04-16T11:55:15.559Z,99062.94
2019-04-16T11:57:45.218Z,99069.96
2019-04-16T12:00:23.084Z,99069.55
2019-04-16T12:02:58.611Z,99061.84
2019-04-16T12:05:29.957Z,99072.54
2019-04-16T12:08:03.653Z,99076.98
2019-04-16T12:10:40.736Z,99074.27
2019-04-16T12:13:20.830Z,99072.72
2019-04-16T12:15:57.684Z,99076.08
2019-04-16T12:18:31.969Z,99078.95
2019-04-16T12:21:02.065Z,99077.28
2019-04-16T12:23:36.421Z,99082.54
2019-04-16T12:26:09.724Z,99086.84
2019-04-16T12:28:54.425Z,99086.95
2019-04-16T12:31:41.673Z,99080.52
2019-04-16T12:34:11.071Z,99092.08
2019-04-16T12:36:42.958Z,99090.66
2019-04-16T12:39:30.396Z,99093.09
2019-04-16T12:42:19.916Z,99096.44
2019-04-16T12:45:00.609Z,99097.00
2019-04-16T12:47:32.775Z,99092.87
2019-04-16T12:50:06.027Z,99085.64
2019-04-16T12:52:38.012Z,99094.84
2019-04-16T12:55:23.826Z,99088.02
2019-04-16T12:57:53.385Z,99082.73
2019-04-16T13:00:40.099Z,99089.56
2019-04-16T13:03:18.272Z,99093.86
2019-04-16T13:06:05.606Z,99091.84
2019-04-16T13:08:53.762Z,99090.69
2019-04-16T13:11:25.039Z,99086.29
2019-04-16T13:13:56.205Z,99087.12
2019-04-16T13:16:36.265Z,99082.59
2019-04-16T13:19:05.865Z,99085.01
2019-04-16T13:21:37.043Z,99085.87
2019-04-16T13:24:08.232Z,99082.03
2019-04-16T13:26:41.807Z,99088.24
2019-04-16T13:29:16.690Z,99083.66
2019-04-16T13:31:44.374Z,99082.66
2019-04-16T13:34:18.338Z,99086.72
2019-04-16T13:36:45.295Z,99086.42
2019-04-16T13:39:16.544Z,99085.56
2019-04-16T13:41:46.072Z,99089.33
2019-04-16T13:44:23.104Z,99085.66
2019-04-16T13:46:52.790Z,99089.72
2019-04-16T13:49:31.639Z,99088.92
2019-04-16T13:52:01.342Z,99087.57
2019-04-16T13:54:38.285Z,99082.45
2019-04-16T13:57:12.223Z,99079.95
2019-04-16T14:00:03.056Z,99084.43
2019-04-16T14:02:38.199Z,99082.66
2019-04-16T14:05:10.569Z,99076.81
2019-04-16T14:07:39.455Z,99070.72
2019-04-16T14:10:09.224Z,99070.11
2019-04-16T14:12:42.356Z,99068.06
2019-04-16T14:15:11.754Z,99069.92
2019-04-16T14:17:52.481Z,99072.92
2019-04-16T14:20:15.233Z,99064.89
2019-04-16T14:22:43.947Z,99062.78
2019-04-16T14:25:13.909Z,99061.98
2019-04-16T14:27:43.521Z,99070.11
2019-04-16T14:30:15.402Z,99069.19
2019-04-16T14:32:45.006Z,99066.15
2019-04-16T14:35:32.994Z,99059.71
2019-04-16T14:37:53.912Z,99061.16
2019-04-16T14:40:24.147Z,99067.04
2019-04-16T14:42:57.355Z,99075.46
2019-04-16T14:45:27.062Z,99069.18
2019-04-16T14:47:56.626Z,99069.11
2019-04-16T14:50:26.297Z,99068.31
2019-04-16T14:52:55.805Z,99068.02
2019-04-16T14:55:35.667Z,99069.23
2019-04-16T14:58:09.622Z,99070.47
2019-04-16T15:00:57.322Z,99079.92
2019-04-16T15:03:44.953Z,99072.85
2019-04-16T15:06:17.006Z,99065.05
2019-04-16T15:09:04.436Z,99071.75
2019-04-16T15:11:51.589Z,99071.60
2019-04-16T15:14:34.409Z,99070.13
2019-04-16T15:17:17.646Z,99071.97
2019-04-16T15:20:07.005Z,99071.81
2019-04-16T15:22:44.265Z,99071.97
2019-04-16T15:25:13.715Z,99075.73
2019-04-16T15:27:44.946Z,99073.37
2019-04-16T15:30:32.478Z,99076.41
2019-04-16T15:33:21.902Z,99077.27
2019-04-16T15:35:53.773Z,99077.92
2019-04-16T15:38:26.630Z,99082.59
2019-04-16T15:41:01.586Z,99077.36
2019-04-16T15:43:50.879Z,99083.91
2019-04-16T15:46:41.375Z,99083.02
2019-04-16T15:49:26.411Z,99083.59
2019-04-16T15:51:55.896Z,99081.14
2019-04-16T15:54:42.350Z,99080.52
2019-04-16T15:57:29.267Z,99082.49
2019-04-16T16:00:03.181Z,99082.91
2019-04-16T16:02:45.330Z,99090.85
2019-04-16T16:05:32.532Z,99085.61
2019-04-16T16:08:18.553Z,99086.30
2019-04-16T16:10:52.616Z,99089.20
2019-04-16T16:13:22.825Z,99092.36
2019-04-16T16:15:53.532Z,99091.75
2019-04-16T16:18:23.188Z,99089.33
2019-04-16T16:20:52.728Z,99094.16
2019-04-16T16:23:22.393Z,99093.17
2019-04-16T16:25:52.021Z,99092.93
2019-04-16T16:28:21.676Z,99092.80
2019-04-16T16:30:51.190Z,99092.19
2019-04-16T16:33:20.724Z,99089.73
2019-04-16T16:35:57.506Z,99094.77
2019-04-16T16:38:21.570Z,99097.10
2019-04-16T16:40:51.319Z,99095.97
2019-04-16T16:43:20.912Z,99093.30
2019-04-16T16:45:52.151Z,99094.40
2019-04-16T16:48:22.417Z,99098.70
2019-04-16T16:50:51.989Z,99102.51
2019-04-16T16:53:23.275Z,99103.73
2019-04-16T16:55:53.379Z,99110.64
2019-04-16T16:58:40.714Z,99107.45
2019-04-16T17:01:33.605Z,99109.56
2019-04-16T17:04:03.601Z,99104.94
2019-04-16T17:06:33.263Z,99108.64
2019-04-16T17:09:03.038Z,99108.38
2019-04-16T17:11:32.632Z,99110.61
2019-04-16T17:14:03.144Z,99109.28
2019-04-16T17:16:32.975Z,99106.00
2019-04-16T17:19:02.569Z,99108.05
2019-04-16T17:21:32.133Z,99111.78
2019-04-16T17:24:02.142Z,99112.13
2019-04-16T17:26:31.793Z,99106.97
2019-04-16T17:29:01.307Z,99109.45
2019-04-16T17:31:30.973Z,99114.73
2019-04-16T17:34:00.558Z,99119.43
2019-04-16T17:36:30.239Z,99122.91
2019-04-16T17:39:00.107Z,99120.42
2019-04-16T17:41:31.580Z,99119.21
2019-04-16T17:44:18.655Z,99114.89
2019-04-16T17:46:52.648Z,99122.75
2019-04-16T17:49:29.542Z,99121.15
2019-04-16T17:52:12.958Z,99115.38
2019-04-16T17:54:50.059Z,99115.77
2019-04-16T17:57:23.039Z,99126.31
2019-04-16T17:59:54.135Z,99129.39
2019-04-16T18:02:41.607Z,99131.49
2019-04-16T18:05:29.091Z,99135.91
2019-04-16T18:08:00.316Z,99131.52
2019-04-16T18:10:47.967Z,99130.16
2019-04-16T18:13:25.934Z,99132.63
2019-04-16T18:15:59.665Z,99131.91
2019-04-16T18:18:42.757Z,99139.28
2019-04-16T18:21:29.973Z,99141.73
2019-04-16T18:24:05.111Z,99144.55
2019-04-16T18:26:39.262Z,99148.59
2019-04-16T18:29:13.221Z,99146.65
2019-04-16T18:31:57.579Z,99151.06
2019-04-16T18:34:27.211Z,99159.88
2019-04-16T18:37:14.253Z,99155.45
2019-04-16T18:40:04.977Z,99153.39
2019-04-16T18:42:32.476Z,99156.58
2019-04-16T18:45:06.069Z,99155.94
2019-04-16T18:47:35.461Z,99164.89
2019-04-16T18:50:09.415Z,99159.27
2019-04-16T18:52:39.044Z,99162.83
2019-04-16T18:55:09.182Z,99170.17
2019-04-16T18:57:39.300Z,99168.08
2019-04-16T19:00:31.929Z,99166.98
2019-04-16T19:03:02.320Z,99168.08
2019-04-16T19:05:32.024Z,99173.36
2019-04-16T19:08:01.584Z,99176.69
2019-04-16T19:10:31.291Z,99175.45
2019-04-16T19:13:00.937Z,99181.94
2019-04-16T19:15:30.654Z,99182.45
2019-04-16T19:18:00.309Z,99188.07
2019-04-16T19:20:30.313Z,99185.15
2019-04-16T19:22:59.822Z,99187.95
2019-04-16T19:25:29.510Z,99189.05
2019-04-16T19:28:04.638Z,99185.86
2019-04-16T19:30:30.513Z,99185.86
2019-04-16T19:33:01.659Z,99186.73
2019-04-16T19:35:31.439Z,99194.07
2019-04-16T19:38:02.348Z,99188.19
2019-04-16T19:40:32.419Z,99196.28
2019-04-16T19:43:03.202Z,99191.52
2019-04-16T19:45:33.085Z,99192.98
2019-04-16T19:48:02.605Z,99197.14
2019-04-16T19:50:36.135Z,99194.81
2019-04-16T19:53:03.559Z,99200.47
2019-04-16T19:55:33.183Z,99200.59
2019-04-16T19:58:02.700Z,99206.36
2019-04-16T20:00:32.291Z,99204.03
2019-04-16T20:03:01.900Z,99196.28
2019-04-16T20:05:31.424Z,99201.94
2019-04-16T20:08:01.043Z,99206.36
2019-04-16T20:10:31.055Z,99204.14
2019-04-16T20:13:01.010Z,99202.65
2019-04-16T20:15:30.555Z,99206.36
2019-04-16T20:18:00.083Z,99205.01
2019-04-16T20:20:29.632Z,99203.66
2019-04-16T20:22:59.227Z,99203.39
2019-04-16T20:25:28.728Z,99205.12
2019-04-16T20:27:58.269Z,99207.06
2019-04-16T20:30:29.649Z,99206.21
2019-04-16T20:32:59.327Z,99202.91
2019-04-16T20:35:29.000Z,99203.77
2019-04-16T20:37:58.584Z,99202.80
2019-04-16T20:40:28.193Z,99202.31
2019-04-16T20:42:57.802Z,99209.55
2019-04-16T20:45:27.335Z,99197.62
2019-04-16T20:47:56.922Z,99204.75
2019-04-16T20:50:26.467Z,99207.70
2019-04-16T20:52:56.896Z,99207.07
2019-04-16T20:55:26.479Z,99203.40
2019-04-16T20:57:59.256Z,99203.89
2019-04-16T21:00:29.032Z,99211.00
2019-04-16T21:03:02.292Z,99206.59
2019-04-16T21:05:35.493Z,99208.05
2019-04-16T21:08:02.865Z,99211.00
2019-04-16T21:10:35.326Z,99206.36
2019-04-16T21:13:03.737Z,99206.59
2019-04-16T21:15:33.243Z,99206.59
2019-04-16T21:18:02.847Z,99206.70
2019-04-16T21:20:32.437Z,99204.14
2019-04-16T21:23:03.470Z,99204.75
2019-04-16T21:25:33.305Z,99209.55
2019-04-16T21:28:20.788Z,99206.09
2019-04-16T21:30:52.012Z,99211.98
2019-04-16T21:33:28.636Z,99209.39
2019-04-16T21:36:04.773Z,99209.77
2019-04-16T21:38:49.888Z,99211.38
2019-04-16T21:41:19.411Z,99208.79
2019-04-16T21:43:48.951Z,99212.72
2019-04-16T21:46:20.551Z,99211.23
2019-04-16T21:48:49.777Z,99217.74
2019-04-16T21:51:24.132Z,99216.77
2019-04-16T21:53:50.588Z,99216.28
2019-04-16T21:56:20.102Z,99214.30
2019-04-16T21:58:50.292Z,99213.81
2019-04-16T22:01:32.734Z,99217.75
2019-04-16T22:04:13.518Z,99213.09
2019-04-16T22:06:40.564Z,99219.36
2019-04-16T22:09:10.273Z,99220.07
2019-04-16T22:11:43.276Z,99225.35
2019-04-16T22:14:11.137Z,99229.17
2019-04-16T22:16:40.666Z,99229.17
2019-04-16T22:19:11.111Z,99229.52
2019-04-16T22:21:42.616Z,99229.52
2019-04-16T22:24:12.790Z,99230.00
2019-04-16T22:26:42.402Z,99233.45
2019-04-16T22:29:15.385Z,99241.31
2019-04-16T22:31:43.184Z,99239.22
2019-04-16T22:34:12.851Z,99242.40
2019-04-16T22:36:42.368Z,99243.52
2019-04-16T22:39:18.973Z,99245.47
2019-04-16T22:41:50.193Z,99243.52
2019-04-16T22:44:38.920Z,99245.47
2019-04-16T22:47:16.139Z,99246.19
2019-04-16T22:49:45.752Z,99246.94
2019-04-16T22:52:15.266Z,99243.75
2019-04-16T22:54:44.861Z,99237.49
2019-04-16T22:57:15.469Z,99238.61
2019-04-16T22:59:45.115Z,99238.09
2019-04-16T23:02:19.008Z,99238.61
2019-04-16T23:04:48.524Z,99242.14
2019-04-16T23:07:18.045Z,99246.67
2019-04-16T23:09:48.704Z,99250.61
2019-04-16T23:12:27.221Z,99254.80
2019-04-16T23:14:53.671Z,99261.29
2019-04-16T23:17:24.896Z,99250.11
2019-04-16T23:19:55.480Z,99253.56
2019-04-16T23:22:25.064Z,99255.87
2019-04-16T23:24:55.424Z,99255.40
2019-04-16T23:27:26.067Z,99256.48
2019-04-16T23:29:55.582Z,99259.44
2019-04-16T23:32:28.658Z,99259.67
2019-04-16T23:34:56.564Z,99259.05
2019-04-16T23:37:26.161Z,99260.02
2019-04-16T23:39:55.773Z,99260.24
2019-04-16T23:42:25.379Z,99265.41
2019-04-16T23:44:58.861Z,99264.58
2019-04-16T23:47:43.148Z,99260.43
2019-04-16T23:50:21.271Z,99268.53
2019-04-16T23:53:06.694Z,99265.16
2019-04-16T23:55:34.457Z,99280.17
2019-04-16T23:58:05.700Z,99275.38
